createdAt,value
2023-04-21T00:01:24.723Z,44.07
2023-04-21T00:02:57.947Z,44.20
2023-04-21T00:04:32.648Z,38.33
2023-04-21T00:06:07.298Z,37.73
2023-04-21T00:07:40.471Z,37.03
2023-04-21T00:09:13.963Z,47.33
2023-04-21T00:10:47.704Z,50.53
2023-04-21T00:12:20.851Z,44.10
2023-04-21T00:13:53.879Z,42.10
2023-04-21T00:15:27.097Z,43.30
2023-04-21T00:17:00.299Z,42.43
2023-04-21T00:18:33.370Z,41.37
2023-04-21T00:20:09.028Z,42.00
2023-04-21T00:21:42.111Z,39.00
2023-04-21T00:23:15.250Z,41.37
2023-04-21T00:24:49.710Z,35.97
2023-04-21T00:26:22.833Z,33.20
2023-04-21T00:27:56.799Z,34.90
2023-04-21T00:29:29.824Z,32.17
2023-04-21T00:31:02.276Z,38.43
2023-04-21T00:32:35.608Z,38.20
2023-04-21T00:34:07.765Z,41.67
2023-04-21T00:35:40.833Z,36.53
2023-04-21T00:37:13.941Z,33.93
2023-04-21T00:38:46.970Z,38.00
2023-04-21T00:40:22.408Z,39.03
2023-04-21T00:41:55.729Z,37.93
2023-04-21T00:43:29.025Z,36.20
2023-04-21T00:45:02.096Z,34.00
2023-04-21T00:46:37.992Z,34.43
2023-04-21T00:48:12.118Z,33.63
2023-04-21T00:49:46.216Z,33.80
2023-04-21T00:51:19.327Z,36.10
2023-04-21T00:52:52.778Z,33.30
2023-04-21T00:54:26.886Z,38.17
2023-04-21T00:56:01.542Z,53.67
2023-04-21T00:57:34.612Z,41.50
2023-04-21T00:59:07.650Z,46.80
2023-04-21T01:00:39.859Z,40.53
2023-04-21T01:02:13.406Z,37.83
2023-04-21T01:03:47.650Z,37.03
2023-04-21T01:05:21.045Z,35.07
2023-04-21T01:06:53.195Z,37.23
2023-04-21T01:08:27.192Z,40.60
2023-04-21T01:10:00.963Z,38.30
2023-04-21T01:11:35.536Z,33.73
2023-04-21T01:13:08.605Z,34.53
2023-04-21T01:14:42.524Z,37.17
2023-04-21T01:16:20.140Z,32.27
2023-04-21T01:17:54.220Z,39.40
2023-04-21T01:19:30.234Z,34.03
2023-04-21T01:21:04.651Z,43.50
2023-04-21T01:22:41.642Z,85.83
2023-04-21T01:24:14.706Z,39.27
2023-04-21T01:25:51.242Z,44.90
2023-04-21T01:27:25.688Z,45.17
2023-04-21T01:29:00.295Z,44.60
2023-04-21T01:30:33.457Z,40.57
2023-04-21T01:32:09.191Z,38.40
2023-04-21T01:33:42.281Z,40.00
2023-04-21T01:35:15.399Z,40.97
2023-04-21T01:36:47.496Z,38.93
2023-04-21T01:38:23.765Z,38.30
2023-04-21T01:39:59.794Z,39.20
2023-04-21T01:41:32.872Z,38.50
2023-04-21T01:43:06.390Z,40.40
2023-04-21T01:44:40.080Z,37.20
2023-04-21T01:46:13.151Z,36.27
2023-04-21T01:47:46.210Z,42.93
2023-04-21T01:49:19.146Z,47.20
2023-04-21T01:50:52.544Z,46.57
2023-04-21T01:52:24.768Z,45.50
2023-04-21T01:54:01.548Z,39.90
2023-04-21T01:55:34.823Z,44.63
2023-04-21T01:57:08.173Z,44.77
2023-04-21T01:58:41.397Z,46.37
2023-04-21T02:00:15.784Z,50.17
2023-04-21T02:01:48.839Z,46.47
2023-04-21T02:03:21.314Z,50.70
2023-04-21T02:04:54.530Z,48.97
2023-04-21T02:06:26.599Z,50.80
2023-04-21T02:07:59.817Z,47.10
2023-04-21T02:09:34.494Z,48.33
2023-04-21T02:11:07.521Z,47.17
2023-04-21T02:12:40.644Z,45.80
2023-04-21T02:14:14.780Z,43.20
2023-04-21T02:15:47.876Z,45.00
2023-04-21T02:17:20.947Z,46.63
2023-04-21T02:18:54.110Z,51.57
2023-04-21T02:20:26.436Z,42.63
2023-04-21T02:21:59.648Z,38.87
2023-04-21T02:23:32.732Z,41.50
2023-04-21T02:25:07.997Z,36.07
2023-04-21T02:26:41.101Z,38.50
2023-04-21T02:28:14.143Z,33.90
2023-04-21T02:29:47.243Z,34.33
2023-04-21T02:31:19.427Z,35.20
2023-04-21T02:32:54.878Z,35.17
2023-04-21T02:34:27.075Z,31.60
2023-04-21T02:36:00.188Z,34.67
2023-04-21T02:37:33.225Z,43.00
2023-04-21T02:39:06.446Z,33.87
2023-04-21T02:40:41.056Z,30.83
2023-04-21T02:42:13.159Z,32.40
2023-04-21T02:43:46.512Z,30.53
2023-04-21T02:45:19.642Z,32.47
2023-04-21T02:46:52.802Z,35.63
2023-04-21T02:48:26.929Z,32.47
2023-04-21T02:50:00.359Z,33.83
2023-04-21T02:51:33.506Z,29.00
2023-04-21T02:53:06.561Z,33.77
2023-04-21T02:54:39.691Z,31.37
2023-04-21T02:56:14.116Z,35.73
2023-04-21T02:57:47.193Z,29.30
2023-04-21T02:59:19.459Z,39.23
2023-04-21T03:00:53.024Z,29.80
2023-04-21T03:02:26.436Z,35.47
2023-04-21T03:03:59.646Z,31.30
2023-04-21T03:05:31.789Z,29.83
2023-04-21T03:07:05.453Z,31.40
2023-04-21T03:08:38.682Z,34.53
2023-04-21T03:10:13.676Z,35.57
2023-04-21T03:11:48.136Z,32.33
2023-04-21T03:13:21.900Z,37.47
2023-04-21T03:14:56.199Z,38.03
2023-04-21T03:16:29.554Z,32.67
2023-04-21T03:18:02.889Z,34.77
2023-04-21T03:19:36.050Z,38.60
2023-04-21T03:21:09.212Z,42.33
2023-04-21T03:22:41.411Z,39.83
2023-04-21T03:24:14.634Z,41.13
2023-04-21T03:25:46.755Z,36.13
2023-04-21T03:27:21.182Z,32.27
2023-04-21T03:28:54.226Z,30.20
2023-04-21T03:30:27.489Z,32.07
2023-04-21T03:32:00.593Z,35.23
2023-04-21T03:33:32.766Z,34.67
2023-04-21T03:35:06.406Z,30.13
2023-04-21T03:36:41.142Z,30.23
2023-04-21T03:38:14.254Z,30.63
2023-04-21T03:39:47.299Z,33.83
2023-04-21T03:41:21.040Z,33.53
2023-04-21T03:42:55.982Z,35.20
2023-04-21T03:44:28.771Z,32.37
2023-04-21T03:46:01.873Z,30.87
2023-04-21T03:47:35.213Z,30.57
2023-04-21T03:49:08.265Z,34.00
2023-04-21T03:50:41.306Z,41.63
2023-04-21T03:52:14.679Z,34.67
2023-04-21T03:53:47.788Z,35.03
2023-04-21T03:55:20.976Z,37.10
2023-04-21T03:56:53.084Z,36.88
2023-04-21T03:58:27.912Z,35.67
2023-04-21T04:00:00.987Z,31.87
2023-04-21T04:01:35.434Z,35.83
2023-04-21T04:03:08.676Z,35.27
2023-04-21T04:04:42.135Z,35.33
2023-04-21T04:06:15.305Z,37.50
2023-04-21T04:07:48.416Z,37.25
2023-04-21T04:09:21.568Z,37.30
2023-04-21T04:10:55.267Z,36.40
2023-04-21T04:12:28.348Z,35.10
2023-04-21T04:14:01.891Z,35.00
2023-04-21T04:15:35.096Z,34.73
2023-04-21T04:17:08.259Z,36.47
2023-04-21T04:18:41.314Z,32.60
2023-04-21T04:20:14.439Z,39.63
2023-04-21T04:21:49.091Z,36.57
2023-04-21T04:23:22.442Z,37.20
2023-04-21T04:24:57.294Z,30.50
2023-04-21T04:26:30.465Z,40.23
2023-04-21T04:28:03.501Z,39.60
2023-04-21T04:29:37.912Z,33.63
2023-04-21T04:31:11.056Z,33.80
2023-04-21T04:32:44.305Z,32.43
2023-04-21T04:34:17.418Z,42.80
2023-04-21T04:35:51.169Z,34.03
2023-04-21T04:37:25.343Z,29.03
2023-04-21T04:38:58.473Z,32.30
2023-04-21T04:40:33.289Z,34.50
2023-04-21T04:42:08.927Z,36.17
2023-04-21T04:43:42.827Z,37.20
2023-04-21T04:45:16.698Z,36.67
2023-04-21T04:46:49.911Z,41.07
2023-04-21T04:48:22.972Z,42.77
2023-04-21T04:49:56.060Z,37.50
2023-04-21T04:51:29.159Z,36.13
2023-04-21T04:53:02.229Z,35.07
2023-04-21T04:54:35.618Z,43.53
2023-04-21T04:56:08.739Z,41.87
2023-04-21T04:57:41.846Z,40.80
2023-04-21T04:59:15.780Z,38.57
2023-04-21T05:00:50.254Z,40.17
2023-04-21T05:02:24.091Z,33.47
2023-04-21T05:03:57.956Z,35.37
2023-04-21T05:05:31.298Z,33.57
2023-04-21T05:07:06.066Z,25.77
2023-04-21T05:08:40.188Z,24.03
2023-04-21T05:10:13.218Z,22.23
2023-04-21T05:11:46.302Z,22.40
2023-04-21T05:13:19.309Z,22.17
2023-04-21T05:14:52.383Z,21.63
2023-04-21T05:16:26.849Z,20.87
2023-04-21T05:18:00.055Z,20.27
2023-04-21T05:19:35.956Z,23.13
2023-04-21T05:21:09.045Z,24.07
2023-04-21T05:22:42.591Z,23.10
2023-04-21T05:24:14.948Z,25.00
2023-04-21T05:25:48.463Z,26.40
2023-04-21T05:27:21.530Z,26.03
2023-04-21T05:28:55.940Z,23.33
2023-04-21T05:30:30.024Z,23.37
2023-04-21T05:32:05.673Z,23.30
2023-04-21T05:33:39.261Z,21.80
2023-04-21T05:35:12.355Z,19.27
2023-04-21T05:36:45.429Z,23.00
2023-04-21T05:38:18.500Z,19.87
2023-04-21T05:39:52.926Z,18.27
2023-04-21T05:41:26.292Z,19.00
2023-04-21T05:42:59.316Z,16.17
2023-04-21T07:23:00.073Z,13.30
2023-04-21T07:24:35.431Z,13.23
2023-04-21T07:26:08.813Z,12.50
2023-04-21T07:27:42.282Z,15.70
2023-04-21T07:29:15.668Z,14.03
2023-04-21T07:30:49.105Z,12.87
2023-04-21T07:32:22.579Z,9.93
2023-04-21T07:33:56.173Z,9.97
2023-04-21T07:35:29.932Z,13.97
2023-04-21T07:37:03.338Z,10.80
2023-04-21T07:38:42.841Z,12.33
2023-04-21T07:40:16.452Z,10.83
2023-04-21T07:41:50.553Z,12.27
2023-04-21T07:43:23.904Z,12.53
2023-04-21T07:44:57.664Z,12.97
2023-04-21T07:46:32.125Z,11.00
2023-04-21T07:48:06.245Z,9.20
2023-04-21T07:49:39.728Z,10.00
2023-04-21T07:51:13.146Z,11.67
2023-04-21T07:52:47.996Z,13.73
2023-04-21T07:54:22.746Z,9.17
2023-04-21T07:55:56.153Z,9.97
2023-04-21T07:57:31.812Z,10.87
2023-04-21T07:59:05.212Z,11.10
2023-04-21T08:00:38.606Z,9.73
2023-04-21T08:02:12.146Z,15.57
2023-04-21T08:03:45.737Z,8.97
2023-04-21T08:05:19.470Z,8.77
2023-04-21T08:06:53.175Z,7.83
2023-04-21T08:08:26.643Z,11.10
2023-04-21T08:10:01.531Z,11.63
2023-04-21T08:11:34.913Z,10.80
2023-04-21T08:13:08.265Z,12.90
2023-04-21T08:14:41.635Z,7.40
2023-04-21T08:16:15.148Z,11.60
2023-04-21T08:17:48.562Z,9.57
2023-04-21T08:19:22.184Z,10.97
2023-04-21T08:20:57.881Z,10.33
2023-04-21T08:22:31.427Z,8.37
2023-04-21T08:24:04.973Z,9.60
2023-04-21T08:25:39.752Z,9.97
2023-04-21T08:27:13.090Z,9.70
2023-04-21T08:28:48.718Z,11.47
2023-04-21T08:30:25.078Z,7.97
2023-04-21T08:31:58.526Z,7.80
2023-04-21T08:33:31.970Z,8.97
2023-04-21T08:35:05.496Z,9.60
2023-04-21T08:36:39.001Z,8.80
2023-04-21T08:38:12.419Z,8.40
2023-04-21T08:39:45.824Z,6.87
2023-04-21T08:41:21.240Z,9.43
2023-04-21T08:42:55.217Z,9.27
2023-04-21T08:44:29.033Z,9.13
2023-04-21T08:46:03.001Z,7.53
2023-04-21T08:47:36.714Z,6.77
2023-04-21T08:49:11.429Z,11.40
2023-04-21T08:50:46.672Z,11.57
2023-04-21T08:52:20.111Z,8.20
2023-04-21T08:53:53.438Z,11.40
2023-04-21T08:55:28.129Z,8.43
2023-04-21T08:57:14.027Z,6.70
2023-04-21T08:58:48.941Z,8.00
2023-04-21T09:00:22.502Z,9.40
2023-04-21T09:02:08.348Z,9.30
2023-04-21T09:03:42.002Z,10.30
2023-04-21T09:05:23.586Z,9.03
2023-04-21T09:06:57.135Z,6.93
2023-04-21T09:08:31.769Z,7.53
2023-04-21T09:10:06.189Z,9.00
2023-04-21T09:11:39.631Z,12.07
2023-04-21T09:13:14.573Z,8.43
2023-04-21T09:14:48.300Z,8.47
2023-04-21T09:16:22.816Z,9.33
2023-04-21T09:17:57.737Z,7.63
2023-04-21T09:19:31.091Z,10.30
2023-04-21T09:21:08.385Z,9.93
2023-04-21T09:22:41.738Z,9.50
2023-04-21T09:24:15.385Z,8.43
2023-04-21T09:25:48.772Z,10.60
2023-04-21T09:27:23.247Z,10.63
2023-04-21T09:28:58.356Z,7.27
2023-04-21T09:30:31.707Z,11.67
2023-04-21T09:32:05.492Z,10.50
2023-04-21T09:33:45.991Z,11.00
2023-04-21T09:35:30.478Z,10.93
2023-04-21T09:37:05.072Z,10.67
2023-04-21T09:38:38.617Z,11.23
2023-04-21T09:40:14.966Z,7.73
2023-04-21T09:41:48.375Z,6.53
2023-04-21T09:43:21.750Z,10.90
2023-04-21T09:45:10.719Z,8.40
2023-04-21T09:46:51.150Z,8.27
2023-04-21T09:48:28.672Z,5.77
2023-04-21T09:50:02.750Z,7.10
2023-04-21T09:52:05.836Z,8.43
2023-04-21T09:53:30.373Z,7.30
2023-04-21T09:55:04.247Z,9.00
2023-04-21T09:56:39.140Z,8.73
2023-04-21T09:58:15.447Z,7.80
2023-04-21T09:59:49.920Z,7.33
2023-04-21T10:01:26.474Z,8.27
2023-04-21T10:03:00.315Z,8.17
2023-04-21T10:04:34.166Z,11.97
2023-04-21T10:06:08.595Z,8.20
2023-04-21T10:07:42.099Z,10.67
2023-04-21T10:09:16.616Z,7.13
2023-04-21T10:10:50.469Z,7.53
2023-04-21T10:12:24.399Z,7.90
2023-04-21T10:13:57.837Z,9.13
2023-04-21T10:15:31.977Z,9.53
2023-04-21T10:17:07.515Z,7.13
2023-04-21T10:18:44.275Z,8.53
2023-04-21T10:20:17.717Z,8.33
2023-04-21T10:21:51.595Z,8.30
2023-04-21T10:23:31.739Z,10.97
2023-04-21T10:25:06.321Z,7.03
2023-04-21T10:26:39.702Z,8.10
2023-04-21T10:28:13.065Z,7.33
2023-04-21T10:29:56.066Z,7.17
2023-04-21T10:31:31.668Z,5.40
2023-04-21T10:33:06.825Z,6.37
2023-04-21T10:34:41.625Z,9.97
2023-04-21T10:36:15.688Z,8.07
2023-04-21T10:37:49.557Z,7.27
2023-04-21T10:39:29.788Z,5.90
2023-04-21T10:41:10.429Z,6.93
2023-04-21T10:42:43.784Z,6.90
2023-04-21T10:44:17.925Z,7.30
2023-04-21T10:45:51.520Z,8.67
2023-04-21T10:47:28.815Z,4.63
2023-04-21T10:49:07.972Z,8.37
2023-04-21T10:50:41.500Z,6.30
2023-04-21T10:52:16.372Z,5.07
2023-04-21T10:53:49.737Z,6.70
2023-04-21T10:55:23.193Z,8.43
2023-04-21T10:56:57.001Z,7.27
2023-04-21T10:58:30.444Z,7.17
2023-04-21T11:00:06.758Z,6.50
2023-04-21T11:01:41.793Z,8.43
2023-04-21T11:03:16.185Z,5.83
2023-04-21T11:04:54.378Z,6.07
2023-04-21T11:06:28.538Z,9.13
2023-04-21T11:08:05.653Z,5.23
2023-04-21T11:09:40.128Z,4.93
2023-04-21T11:11:23.985Z,9.30
2023-04-21T11:12:59.115Z,4.73
2023-04-21T11:14:34.558Z,8.07
2023-04-21T11:16:09.492Z,8.80
2023-04-21T11:17:43.806Z,6.20
2023-04-21T11:19:17.400Z,7.80
2023-04-21T11:20:53.668Z,7.57
2023-04-21T11:22:27.824Z,9.50
2023-04-21T11:24:01.425Z,5.60
2023-04-21T11:25:34.844Z,10.27
2023-04-21T11:27:12.250Z,8.57
2023-04-21T11:28:49.551Z,8.30
2023-04-21T11:30:23.028Z,4.77
2023-04-21T11:31:56.382Z,5.00
2023-04-21T11:33:30.740Z,8.37
2023-04-21T11:35:04.657Z,6.80
2023-04-21T11:36:40.703Z,6.20
2023-04-21T11:38:15.948Z,8.27
2023-04-21T11:39:49.348Z,9.97
2023-04-21T11:41:23.594Z,5.77
2023-04-21T11:42:56.988Z,7.93
2023-04-21T11:44:34.304Z,7.13
2023-04-21T11:46:19.092Z,7.87
2023-04-21T11:47:52.522Z,8.70
2023-04-21T11:49:29.328Z,7.33
2023-04-21T11:51:02.692Z,6.10
2023-04-21T11:52:38.336Z,5.90
2023-04-21T11:54:12.669Z,4.50
2023-04-21T11:55:46.172Z,5.87
2023-04-21T11:57:20.284Z,8.37
2023-04-21T11:58:54.107Z,10.07
2023-04-21T12:00:31.966Z,5.60
2023-04-21T12:02:05.336Z,7.60
2023-04-21T12:03:38.894Z,4.50
2023-04-21T12:05:13.003Z,7.30
2023-04-21T12:06:46.914Z,8.30
2023-04-21T12:08:21.613Z,5.17
2023-04-21T12:09:55.245Z,7.93
2023-04-21T12:11:29.575Z,5.00
2023-04-21T12:13:02.992Z,10.07
2023-04-21T12:14:36.369Z,7.63
2023-04-21T12:16:10.142Z,6.50
2023-04-21T12:17:46.256Z,8.67
2023-04-21T12:19:26.668Z,8.30
2023-04-21T12:21:02.961Z,8.53
2023-04-21T12:22:36.290Z,11.37
2023-04-21T12:24:11.055Z,6.30
2023-04-21T12:25:45.687Z,8.20
2023-04-21T12:27:19.191Z,6.93
2023-04-21T12:28:52.772Z,6.93
2023-04-21T12:30:26.199Z,8.03
2023-04-21T12:31:59.704Z,7.83
2023-04-21T12:33:33.178Z,8.13
2023-04-21T12:35:06.771Z,6.00
2023-04-21T12:36:40.115Z,6.37
2023-04-21T12:38:13.516Z,6.47
2023-04-21T12:39:48.212Z,7.80
2023-04-21T12:41:21.573Z,7.53
2023-04-21T12:42:54.921Z,7.10
2023-04-21T12:44:28.304Z,4.63
2023-04-21T12:46:02.033Z,5.10
2023-04-21T12:47:35.521Z,6.87
2023-04-21T12:49:10.072Z,4.43
2023-04-21T12:50:43.518Z,5.73
2023-04-21T12:52:16.922Z,3.73
2023-04-21T12:53:50.971Z,6.60
2023-04-21T12:55:25.725Z,4.83
2023-04-21T12:56:59.183Z,6.13
2023-04-21T12:58:32.569Z,6.60
2023-04-21T13:00:08.527Z,6.50
2023-04-21T13:01:42.684Z,7.07
2023-04-21T13:03:16.321Z,7.83
2023-04-21T13:04:49.895Z,3.57
2023-04-21T13:06:23.242Z,5.70
2023-04-21T13:07:56.610Z,7.40
2023-04-21T13:09:30.144Z,6.53
2023-04-21T13:11:05.423Z,4.50
2023-04-21T13:12:38.988Z,6.53
2023-04-21T13:14:12.424Z,5.77
2023-04-21T13:15:45.778Z,6.23
2023-04-21T13:17:19.282Z,7.43
2023-04-21T13:18:52.708Z,7.10
2023-04-21T13:20:26.203Z,6.60
2023-04-21T13:21:59.554Z,5.97
2023-04-21T13:23:32.939Z,9.57
2023-04-21T13:25:06.694Z,7.07
2023-04-21T13:26:41.525Z,7.23
2023-04-21T13:28:15.121Z,6.60
2023-04-21T13:29:49.269Z,9.53
2023-04-21T13:31:22.800Z,5.97
2023-04-21T13:32:56.450Z,7.27
2023-04-21T13:34:30.270Z,5.03
2023-04-21T13:36:04.131Z,6.83
2023-04-21T13:37:37.735Z,5.70
2023-04-21T13:39:11.522Z,7.17
2023-04-21T13:40:45.570Z,4.90
2023-04-21T13:42:21.068Z,4.63
2023-04-21T13:43:54.429Z,6.67
2023-04-21T13:45:28.003Z,4.57
2023-04-21T13:47:01.595Z,4.43
2023-04-21T13:48:35.163Z,5.03
2023-04-21T13:50:09.110Z,5.30
2023-04-21T13:51:42.504Z,5.13
2023-04-21T13:53:16.418Z,2.97
2023-04-21T13:54:50.606Z,4.80
2023-04-21T13:56:24.019Z,7.23
2023-04-21T13:58:00.618Z,7.37
2023-04-21T13:59:34.203Z,6.77
2023-04-21T14:01:08.088Z,6.97
2023-04-21T14:02:42.692Z,5.60
2023-04-21T14:04:16.526Z,5.43
2023-04-21T14:05:50.186Z,6.70
2023-04-21T14:07:25.663Z,7.10
2023-04-21T14:08:59.777Z,7.00
2023-04-21T14:10:33.196Z,6.33
2023-04-21T14:12:06.619Z,4.57
2023-04-21T14:13:52.030Z,4.83
2023-04-21T14:15:34.830Z,7.17
2023-04-21T14:17:08.580Z,6.60
2023-04-21T14:18:45.091Z,4.90
2023-04-21T14:20:18.463Z,5.43
2023-04-21T14:21:51.923Z,7.50
2023-04-21T14:23:25.285Z,8.70
2023-04-21T14:24:58.687Z,5.40
2023-04-21T14:26:32.065Z,5.07
2023-04-21T14:28:07.367Z,6.73
2023-04-21T14:29:42.198Z,6.00
2023-04-21T14:31:15.587Z,6.03
2023-04-21T14:32:49.016Z,4.53
2023-04-21T14:34:22.438Z,8.40
2023-04-21T14:35:55.791Z,3.93
2023-04-21T14:37:29.176Z,7.47
2023-04-21T14:39:02.537Z,6.07
2023-04-21T14:40:35.909Z,6.87
2023-04-21T14:42:09.269Z,8.07
2023-04-21T14:43:42.638Z,8.53
2023-04-21T14:45:17.510Z,7.37
2023-04-21T14:47:01.467Z,7.30
2023-04-21T14:48:43.169Z,6.70
2023-04-21T14:50:16.556Z,7.83
2023-04-21T14:51:51.869Z,8.17
2023-04-21T14:53:25.703Z,6.50
2023-04-21T14:55:00.255Z,5.77
2023-04-21T14:56:33.736Z,6.63
2023-04-21T14:58:07.361Z,6.27
2023-04-21T14:59:40.929Z,7.17
2023-04-21T15:01:15.919Z,7.27
2023-04-21T15:02:49.521Z,7.50
2023-04-21T15:04:24.091Z,6.57
2023-04-21T15:05:57.656Z,7.07
2023-04-21T15:07:30.979Z,4.30
2023-04-21T15:09:05.176Z,7.60
2023-04-21T15:10:38.622Z,7.73
2023-04-21T15:12:12.664Z,8.17
2023-04-21T15:13:46.107Z,6.17
2023-04-21T15:15:19.614Z,7.53
2023-04-21T15:16:54.645Z,6.17
2023-04-21T15:18:28.049Z,6.13
2023-04-21T15:20:01.527Z,5.53
2023-04-21T15:21:35.056Z,7.63
2023-04-21T15:23:08.437Z,7.33
2023-04-21T15:24:41.811Z,7.00
2023-04-21T15:27:49.756Z,6.63
2023-04-21T15:29:23.094Z,5.60
2023-04-21T15:30:56.542Z,11.30
2023-04-21T15:32:31.645Z,4.97
2023-04-21T15:34:05.024Z,5.77
2023-04-21T15:35:38.377Z,5.37
2023-04-21T15:37:11.741Z,5.90
2023-04-21T15:38:45.917Z,4.07
2023-04-21T15:40:19.387Z,10.10
2023-04-21T15:41:53.652Z,9.30
2023-04-21T15:43:27.100Z,3.97
2023-04-21T15:45:02.092Z,6.67
2023-04-21T15:46:35.560Z,4.63
2023-04-21T15:48:12.294Z,5.60
2023-04-21T15:49:45.786Z,9.67
2023-04-21T15:51:20.453Z,3.80
2023-04-21T15:52:53.890Z,8.60
2023-04-21T15:54:27.331Z,5.37
2023-04-21T15:56:00.784Z,5.37
2023-04-21T15:57:34.176Z,7.10
2023-04-21T15:59:07.750Z,9.33
2023-04-21T16:00:42.543Z,9.97
2023-04-21T16:02:16.200Z,6.20
2023-04-21T16:03:51.410Z,4.63
2023-04-21T16:05:28.497Z,5.33
2023-04-21T16:07:02.666Z,3.93
2023-04-21T16:08:36.090Z,8.13
2023-04-21T16:10:10.245Z,8.93
2023-04-21T16:11:43.689Z,6.97
2023-04-21T16:13:17.065Z,7.40
2023-04-21T16:14:57.795Z,6.93
2023-04-21T16:16:37.784Z,5.00
2023-04-21T16:18:11.318Z,8.63
2023-04-21T16:19:46.217Z,11.90
2023-04-21T16:21:19.722Z,10.30
2023-04-21T16:22:53.156Z,7.80
2023-04-21T16:24:26.737Z,9.37
2023-04-21T16:26:01.885Z,9.37
2023-04-21T16:27:35.538Z,9.50
2023-04-21T16:29:08.943Z,7.97
2023-04-21T16:30:43.478Z,9.23
2023-04-21T16:32:17.414Z,9.63
2023-04-21T16:33:52.504Z,10.20
2023-04-21T16:35:27.442Z,7.37
2023-04-21T16:37:00.900Z,8.13
2023-04-21T16:38:34.304Z,11.87
2023-04-21T16:40:08.559Z,7.50
2023-04-21T16:41:42.004Z,7.33
2023-04-21T16:43:15.369Z,8.67
2023-04-21T16:44:48.812Z,9.07
2023-04-21T16:46:22.317Z,8.97
2023-04-21T16:47:55.921Z,8.57
2023-04-21T16:49:30.177Z,9.97
2023-04-21T16:51:05.741Z,13.97
2023-04-21T16:52:39.104Z,13.00
2023-04-21T16:54:12.574Z,10.43
2023-04-21T16:55:45.936Z,9.57
2023-04-21T16:57:19.343Z,7.73
2023-04-21T16:58:52.775Z,9.80
2023-04-21T17:00:26.763Z,10.10
2023-04-21T17:02:00.203Z,7.87
2023-04-21T17:03:33.801Z,7.87
2023-04-21T17:05:07.638Z,9.97
2023-04-21T17:06:42.387Z,10.37
2023-04-21T17:08:15.815Z,9.20
2023-04-21T17:09:50.534Z,13.70
2023-04-21T17:11:23.856Z,9.37
2023-04-21T17:12:57.229Z,9.13
2023-04-21T17:14:30.762Z,10.33
2023-04-21T17:16:04.149Z,9.07
2023-04-21T17:17:42.225Z,10.00
2023-04-21T17:19:15.593Z,10.43
2023-04-21T17:20:48.963Z,8.63
2023-04-21T17:22:23.740Z,13.53
2023-04-21T17:23:57.110Z,7.63
2023-04-21T17:25:30.810Z,8.63
2023-04-21T17:27:04.367Z,11.53
2023-04-21T17:28:37.837Z,9.17
2023-04-21T17:30:11.756Z,9.00
2023-04-21T17:31:45.388Z,9.50
2023-04-21T17:33:18.934Z,12.47
2023-04-21T17:34:52.295Z,8.83
2023-04-21T17:36:25.698Z,10.57
2023-04-21T17:38:00.634Z,9.93
2023-04-21T17:39:34.048Z,8.23
2023-04-21T17:41:08.332Z,10.97
2023-04-21T17:42:41.801Z,12.57
2023-04-21T17:44:15.168Z,9.20
2023-04-21T17:45:48.543Z,8.30
2023-04-21T17:47:22.144Z,12.03
2023-04-21T17:48:55.844Z,8.53
2023-04-21T17:50:31.141Z,8.47
2023-04-21T17:52:04.728Z,10.80
2023-04-21T17:53:39.501Z,11.60
2023-04-21T17:55:13.218Z,8.67
2023-04-21T17:56:46.873Z,10.20
2023-04-21T17:58:20.337Z,10.47
2023-04-21T17:59:53.722Z,9.93
2023-04-21T18:01:27.259Z,8.70
2023-04-21T18:03:00.814Z,9.37
2023-04-21T18:04:34.547Z,9.70
2023-04-21T18:06:09.861Z,13.17
2023-04-21T18:07:43.284Z,11.07
2023-04-21T18:09:18.438Z,9.57
2023-04-21T18:10:51.848Z,9.67
2023-04-21T18:12:25.389Z,8.77
2023-04-21T18:13:58.798Z,11.13
2023-04-21T18:15:32.242Z,9.33
2023-04-21T18:17:06.014Z,10.17
2023-04-21T18:18:39.448Z,12.17
2023-04-21T18:20:14.903Z,11.33
2023-04-21T18:21:48.280Z,10.47
2023-04-21T18:23:21.693Z,12.47
2023-04-21T18:24:56.430Z,10.67
2023-04-21T18:26:29.814Z,11.10
2023-04-21T18:28:03.143Z,12.10
2023-04-21T18:29:36.542Z,10.30
2023-04-21T18:31:10.560Z,8.57
2023-04-21T18:32:44.103Z,12.17
2023-04-21T18:34:17.539Z,13.60
2023-04-21T18:35:51.087Z,11.77
2023-04-21T18:37:24.423Z,10.00
2023-04-21T18:38:57.791Z,11.67
2023-04-21T18:40:33.148Z,12.37
2023-04-21T18:42:06.565Z,10.80
2023-04-21T18:43:39.989Z,11.00
2023-04-21T18:45:13.536Z,12.50
2023-04-21T18:46:47.067Z,9.87
2023-04-21T18:48:20.110Z,14.10
2023-04-21T18:49:53.197Z,9.97
2023-04-21T18:51:27.420Z,9.50
2023-04-21T18:53:00.981Z,12.90
2023-04-21T18:54:34.094Z,11.07
2023-04-21T18:56:08.567Z,11.07
2023-04-21T18:57:41.638Z,12.43
2023-04-21T18:59:14.689Z,12.23
2023-04-21T19:00:47.813Z,13.30
2023-04-21T19:02:21.040Z,13.10
2023-04-21T19:03:54.487Z,11.17
2023-04-21T19:05:29.802Z,10.83
2023-04-21T19:07:06.159Z,9.93
2023-04-21T19:08:42.624Z,12.80
2023-04-21T19:10:16.378Z,11.20
2023-04-21T19:11:50.843Z,9.83
2023-04-21T19:13:24.076Z,13.07
2023-04-21T19:14:57.391Z,11.97
2023-04-21T19:16:30.867Z,10.77
2023-04-21T19:18:03.942Z,9.47
2023-04-21T19:19:36.989Z,10.77
2023-04-21T19:21:13.437Z,12.13
2023-04-21T19:22:46.542Z,10.20
2023-04-21T19:24:19.653Z,10.43
2023-04-21T19:25:55.045Z,10.87
2023-04-21T19:27:30.341Z,10.60
2023-04-21T19:29:03.713Z,10.97
2023-04-21T19:30:36.786Z,11.43
2023-04-21T19:32:10.000Z,11.53
2023-04-21T19:33:43.115Z,13.37
2023-04-21T19:35:16.543Z,11.43
2023-04-21T19:36:51.625Z,13.13
2023-04-21T19:38:24.735Z,13.77
2023-04-21T19:39:57.830Z,15.53
2023-04-21T19:41:31.021Z,16.27
2023-04-21T19:43:05.576Z,18.13
2023-04-21T19:44:39.765Z,16.83
2023-04-21T19:46:13.850Z,16.53
2023-04-21T19:47:47.691Z,20.07
2023-04-21T19:49:20.739Z,15.00
2023-04-21T19:50:53.755Z,14.93
2023-04-21T19:52:26.866Z,15.97
2023-04-21T19:54:10.896Z,17.77
2023-04-21T19:55:46.432Z,18.60
2023-04-21T19:57:19.530Z,19.10
2023-04-21T19:58:53.986Z,17.87
2023-04-21T20:00:27.323Z,16.47
2023-04-21T20:02:00.510Z,20.77
2023-04-21T20:03:34.087Z,16.60
2023-04-21T20:05:09.394Z,15.70
2023-04-21T20:06:42.590Z,15.43
2023-04-21T20:08:16.281Z,15.87
2023-04-21T20:09:49.770Z,13.73
2023-04-21T20:11:23.168Z,14.27
2023-04-21T20:12:56.327Z,14.80
2023-04-21T20:14:31.314Z,14.80
2023-04-21T20:16:04.408Z,14.50
2023-04-21T20:17:37.589Z,13.97
2023-04-21T20:19:11.277Z,17.17
2023-04-21T20:20:44.377Z,14.37
2023-04-21T20:22:17.568Z,14.30
2023-04-21T20:23:50.669Z,15.33
2023-04-21T20:25:23.713Z,14.83
2023-04-21T20:26:57.130Z,14.87
2023-04-21T20:28:30.420Z,15.40
2023-04-21T20:30:05.503Z,16.27
2023-04-21T20:31:38.655Z,13.83
2023-04-21T20:33:11.880Z,16.93
2023-04-21T20:34:45.011Z,20.63
2023-04-21T20:36:18.455Z,19.43
2023-04-21T20:37:53.385Z,15.23
2023-04-21T20:39:26.433Z,18.27
2023-04-21T20:40:59.784Z,13.53
2023-04-21T20:42:33.382Z,17.67
2023-04-21T20:44:06.632Z,15.57
2023-04-21T20:45:41.356Z,13.70
2023-04-21T20:47:14.662Z,14.00
2023-04-21T20:48:47.803Z,12.93
2023-04-21T20:50:21.307Z,12.73
2023-04-21T20:51:58.536Z,13.33
2023-04-21T20:53:31.659Z,14.80
2023-04-21T20:55:05.214Z,12.30
2023-04-21T20:56:38.375Z,10.40
2023-04-21T20:58:11.723Z,10.40
2023-04-21T20:59:44.929Z,11.17
2023-04-21T21:01:19.537Z,10.33
2023-04-21T21:02:52.766Z,11.93
2023-04-21T21:04:26.065Z,11.17
2023-04-21T21:05:59.247Z,11.03
2023-04-21T21:07:32.524Z,9.63
2023-04-21T21:09:06.014Z,10.40
2023-04-21T21:10:39.160Z,10.33
2023-04-21T21:12:12.222Z,10.83
2023-04-21T21:13:45.458Z,10.00
2023-04-21T21:15:18.654Z,12.17
2023-04-21T21:16:54.477Z,10.90
2023-04-21T21:18:27.840Z,11.27
2023-04-21T21:20:01.358Z,9.67
2023-04-21T21:21:34.507Z,10.63
2023-04-21T21:23:07.564Z,11.67
2023-04-21T21:24:40.708Z,10.83
2023-04-21T21:26:13.810Z,10.80
2023-04-21T21:27:46.895Z,9.60
2023-04-21T21:29:19.930Z,9.37
2023-04-21T21:30:52.994Z,10.03
2023-04-21T21:32:27.460Z,11.27
2023-04-21T21:34:01.211Z,11.37
2023-04-21T21:35:34.350Z,10.00
2023-04-21T21:37:07.453Z,10.20
2023-04-21T21:38:40.867Z,12.77
2023-04-21T21:40:14.256Z,11.63
2023-04-21T21:41:47.315Z,10.00
2023-04-21T21:43:20.331Z,9.50
2023-04-21T21:44:53.378Z,10.03
2023-04-21T21:46:26.544Z,10.00
2023-04-21T21:48:01.216Z,11.27
2023-04-21T21:49:34.331Z,11.87
2023-04-21T21:51:07.477Z,9.60
2023-04-21T21:52:40.573Z,10.43
2023-04-21T21:54:14.180Z,9.47
2023-04-21T21:55:47.226Z,8.97
2023-04-21T21:57:20.485Z,9.53
2023-04-21T21:58:53.957Z,8.93
2023-04-21T22:00:27.132Z,9.63
2023-04-21T22:02:00.416Z,10.70
2023-04-21T22:03:36.268Z,9.50
2023-04-21T22:05:10.373Z,8.83
2023-04-21T22:06:45.522Z,11.43
2023-04-21T22:08:18.572Z,10.77
2023-04-21T22:09:51.640Z,12.93
2023-04-21T22:11:24.835Z,10.97